createdAt,value
2016-03-12T00:00:16.923Z,77.47
2016-03-12T00:01:16.893Z,77.47
2016-03-12T00:02:16.850Z,77.75
2016-03-12T00:03:16.774Z,77.75
2016-03-12T00:04:16.714Z,77.66
2016-03-12T00:05:16.670Z,77.66
2016-03-12T00:06:16.647Z,77.75
2016-03-12T00:07:16.544Z,77.56
2016-03-12T00:08:16.492Z,77.56
2016-03-12T00:09:16.432Z,77.84
2016-03-12T00:10:16.372Z,77.56
2016-03-12T00:11:16.313Z,77.56
2016-03-12T00:12:16.268Z,77.84
2016-03-12T00:13:16.224Z,78.23
2016-03-12T00:14:15.992Z,78.42
2016-03-12T00:15:16.104Z,78.13
2016-03-12T00:16:16.044Z,78.32
2016-03-12T00:17:15.813Z,78.42
2016-03-12T00:18:15.925Z,78.23
2016-03-12T00:19:15.865Z,78.03
2016-03-12T00:20:15.805Z,78.03
2016-03-12T00:21:15.792Z,78.32
2016-03-12T00:22:15.701Z,78.51
2016-03-12T00:23:15.641Z,78.61
2016-03-12T00:24:15.613Z,78.8
2016-03-12T00:25:15.538Z,78.7
2016-03-12T00:26:15.462Z,78.8
2016-03-12T00:27:15.418Z,78.99
2016-03-12T00:28:15.358Z,78.99
2016-03-12T00:29:15.313Z,78.61
2016-03-12T00:30:15.255Z,78.61
2016-03-12T00:31:15.194Z,78.7
2016-03-12T00:32:15.166Z,78.51
2016-03-12T00:33:15.074Z,78.61
2016-03-12T00:34:15.062Z,78.7
2016-03-12T00:35:14.971Z,78.89
2016-03-12T00:36:14.927Z,78.7
2016-03-12T00:37:14.866Z,78.8
2016-03-12T00:38:14.791Z,78.61
2016-03-12T00:39:14.732Z,78.7
2016-03-12T00:40:14.671Z,78.89
2016-03-12T00:41:14.627Z,78.8
2016-03-12T00:42:14.567Z,78.89
2016-03-12T00:43:14.711Z,78.51
2016-03-12T00:44:14.464Z,79.27
2016-03-12T00:45:14.388Z,79.74
2016-03-12T00:46:14.344Z,79.84
2016-03-12T00:47:14.284Z,79.46
2016-03-12T00:48:14.224Z,79.94
2016-03-12T00:49:14.165Z,79.36
2016-03-12T00:50:14.105Z,79.46
2016-03-12T00:51:14.061Z,79.74
2016-03-12T00:52:14.001Z,79.65
2016-03-12T00:53:13.973Z,79.46
2016-03-12T00:54:13.881Z,79.17
2016-03-12T00:55:13.822Z,79.65
2016-03-12T00:56:13.777Z,79.46
2016-03-12T00:57:13.717Z,79.46
2016-03-12T00:58:13.658Z,79.36
2016-03-12T00:59:13.613Z,79.46
2016-03-12T01:00:13.553Z,79.94
2016-03-12T01:01:13.510Z,79.84
2016-03-12T01:02:13.433Z,79.94
2016-03-12T01:03:13.405Z,79.55
2016-03-12T01:04:13.330Z,79.55
2016-03-12T01:05:13.254Z,79.84
2016-03-12T01:06:13.211Z,79.94
2016-03-12T01:07:13.166Z,79.84
2016-03-12T01:08:13.122Z,79.94
2016-03-12T01:09:13.046Z,80.13
2016-03-12T01:10:13.002Z,79.94
2016-03-12T01:11:12.927Z,79.84
2016-03-12T01:12:12.868Z,79.84
2016-03-12T01:13:12.823Z,79.84
2016-03-12T01:14:12.763Z,79.84
2016-03-12T01:15:12.718Z,80.22
2016-03-12T01:16:12.659Z,79.84
2016-03-12T01:17:12.599Z,79.74
2016-03-12T01:18:12.540Z,79.65
2016-03-12T01:19:12.479Z,79.65
2016-03-12T01:20:12.433Z,79.84
2016-03-12T01:21:12.357Z,79.84
2016-03-12T01:22:12.298Z,79.84
2016-03-12T01:23:12.237Z,79.94
2016-03-12T01:24:12.209Z,79.84
2016-03-12T01:25:12.149Z,80.03
2016-03-12T01:26:12.089Z,80.13
2016-03-12T01:27:12.030Z,80.13
2016-03-12T01:28:11.970Z,80.03
2016-03-12T01:29:11.925Z,79.84
2016-03-12T01:30:11.866Z,79.55
2016-03-12T01:31:11.806Z,79.74
2016-03-12T01:32:11.747Z,79.94
2016-03-12T01:33:11.718Z,80.51
2016-03-12T01:34:11.642Z,80.32
2016-03-12T01:35:11.583Z,79.94
2016-03-12T01:36:11.538Z,80.13
2016-03-12T01:37:11.463Z,80.32
2016-03-12T01:38:11.402Z,80.32
2016-03-12T01:39:11.343Z,80.13
2016-03-12T01:40:11.283Z,80.22
2016-03-12T01:41:11.271Z,80.13
2016-03-12T01:42:11.195Z,80.13
2016-03-12T01:43:11.120Z,80.79
2016-03-12T01:44:11.090Z,80.69
2016-03-12T01:45:11.015Z,80.69
2016-03-12T01:46:10.971Z,80.51
2016-03-12T01:47:10.912Z,80.6
2016-03-12T01:48:10.851Z,80.51
2016-03-12T01:49:10.793Z,80.88
2016-03-12T01:50:10.748Z,80.79
2016-03-12T01:51:10.673Z,81.55
2016-03-12T01:52:10.628Z,81.36
2016-03-12T01:53:10.568Z,81.36
2016-03-12T01:54:10.525Z,81.65
2016-03-12T01:55:10.481Z,81.84
2016-03-12T01:56:10.389Z,81.74
2016-03-12T01:57:10.344Z,81.93
2016-03-12T01:58:10.285Z,81.74
2016-03-12T01:59:10.241Z,81.65
2016-03-12T02:00:10.181Z,81.84
2016-03-12T02:01:10.121Z,81.65
2016-03-12T02:02:10.077Z,81.84
2016-03-12T02:03:10.017Z,81.65
2016-03-12T02:04:09.958Z,81.84
2016-03-12T02:05:09.897Z,82.12
2016-03-12T02:06:09.838Z,82.69
2016-03-12T02:07:09.777Z,82.69
2016-03-12T02:08:09.734Z,82.12
2016-03-12T02:09:09.674Z,82.4
2016-03-12T02:10:09.614Z,82.21
2016-03-12T02:11:09.554Z,82.4
2016-03-12T02:12:09.510Z,82.21
2016-03-12T02:13:09.435Z,82.69
2016-03-12T02:14:09.375Z,82.4
2016-03-12T02:15:09.331Z,82.12
2016-03-12T02:16:09.271Z,82.31
2016-03-12T02:17:09.196Z,82.31
2016-03-12T02:18:09.152Z,82.21
2016-03-12T02:19:09.107Z,83.5
2016-03-12T02:20:09.015Z,83.69
2016-03-12T02:21:09.003Z,83.31
2016-03-12T02:22:08.928Z,82.97
2016-03-12T02:23:08.853Z,83.59
2016-03-12T02:24:08.823Z,83.31
2016-03-12T02:25:08.733Z,82.84
2016-03-12T02:26:08.703Z,83.26
2016-03-12T02:27:08.644Z,83.12
2016-03-12T02:28:08.569Z,83.16
2016-03-12T02:29:08.524Z,82.74
2016-03-12T02:30:08.465Z,83.16
2016-03-12T02:31:08.389Z,83.16
2016-03-12T02:32:08.361Z,82.88
2016-03-12T02:33:08.300Z,82.78
2016-03-12T02:34:08.225Z,83.16
2016-03-12T02:35:08.180Z,83.26
2016-03-12T02:36:08.122Z,83.31
2016-03-12T02:37:08.061Z,82.97
2016-03-12T02:38:07.986Z,82.97
2016-03-12T02:39:07.941Z,83.36
2016-03-12T02:40:07.898Z,83.31
2016-03-12T02:41:07.822Z,83.36
2016-03-12T02:42:07.778Z,83.45
2016-03-12T02:43:07.718Z,83.12
2016-03-12T02:44:07.674Z,82.84
2016-03-12T02:45:07.599Z,83.12
2016-03-12T02:46:07.585Z,83.31
2016-03-12T02:47:07.495Z,83.07
2016-03-12T02:48:07.434Z,83.45
2016-03-12T02:49:07.376Z,83.07
2016-03-12T02:50:07.331Z,83.22
2016-03-12T02:51:07.271Z,82.88
2016-03-12T02:52:07.211Z,83.31
2016-03-12T02:53:07.136Z,83.03
2016-03-12T02:54:07.091Z,83.4
2016-03-12T02:55:07.017Z,82.93
2016-03-12T02:56:07.003Z,82.97
2016-03-12T02:57:06.928Z,83.31
2016-03-12T02:58:06.853Z,83.45
2016-03-12T02:59:06.809Z,83.31
2016-03-12T03:00:06.733Z,82.93
2016-03-12T03:01:06.688Z,83.22
2016-03-12T03:02:06.628Z,82.93
2016-03-12T03:03:06.569Z,83.36
2016-03-12T03:04:06.525Z,83.07
2016-03-12T03:05:06.449Z,82.78
2016-03-12T03:06:06.405Z,82.88
2016-03-12T03:07:06.330Z,83.5
2016-03-12T03:08:06.286Z,83.31
2016-03-12T03:09:06.226Z,84.26
2016-03-12T03:10:06.166Z,84.17
2016-03-12T03:11:06.122Z,83.78
2016-03-12T03:12:06.047Z,83.88
2016-03-12T03:13:06.002Z,83.4
2016-03-12T03:14:05.926Z,83.22
2016-03-12T03:15:05.882Z,83.12
2016-03-12T03:16:05.838Z,83.22
2016-03-12T03:17:05.748Z,83.69
2016-03-12T03:18:05.703Z,83.88
2016-03-12T03:19:05.659Z,83.97
2016-03-12T03:20:05.583Z,83.5
2016-03-12T03:21:05.555Z,83.4
2016-03-12T03:22:05.479Z,83.59
2016-03-12T03:23:05.623Z,83.69
2016-03-12T03:24:05.360Z,83.4
2016-03-12T03:25:05.300Z,83.5
2016-03-12T03:26:05.240Z,83.5
2016-03-12T03:27:05.164Z,83.5
2016-03-12T03:28:05.136Z,83.31
2016-03-12T03:29:05.061Z,84.36
2016-03-12T03:30:05.017Z,83.88
2016-03-12T03:31:04.956Z,84.26
2016-03-12T03:32:04.881Z,83.78
2016-03-12T03:33:04.837Z,84.17
2016-03-12T03:34:04.778Z,83.88
2016-03-12T03:35:04.717Z,83.78
2016-03-12T03:36:04.658Z,83.69
2016-03-12T03:37:04.614Z,83.59
2016-03-12T03:38:04.538Z,83.69
2016-03-12T03:39:04.478Z,83.88
2016-03-12T03:40:04.434Z,83.59
2016-03-12T03:41:04.359Z,83.97
2016-03-12T03:42:04.315Z,83.59
2016-03-12T03:43:04.271Z,83.88
2016-03-12T03:44:04.195Z,83.78
2016-03-12T03:45:04.135Z,83.31
2016-03-12T03:46:04.076Z,83.59
2016-03-12T03:47:04.047Z,83.4
2016-03-12T03:48:03.971Z,83.31
2016-03-12T03:49:03.912Z,83.78
2016-03-12T03:50:03.868Z,83.5
2016-03-12T03:51:03.807Z,83.78
2016-03-12T03:52:03.731Z,83.69
2016-03-12T03:53:03.687Z,83.4
2016-03-12T03:54:03.612Z,83.59
2016-03-12T03:55:03.568Z,83.59
2016-03-12T03:56:03.508Z,82.93
2016-03-12T03:57:03.433Z,83.31
2016-03-12T03:58:03.404Z,83.31
2016-03-12T03:59:03.329Z,84.07
2016-03-12T04:00:03.300Z,84.55
2016-03-12T04:01:03.225Z,84.74
2016-03-12T04:02:03.150Z,84.5
2016-03-12T04:03:03.106Z,84.55
2016-03-12T04:04:03.030Z,84.45
2016-03-12T04:05:02.985Z,84.45
2016-03-12T04:06:02.942Z,84.36
2016-03-12T04:07:02.866Z,83.97
2016-03-12T04:08:02.806Z,83.69
2016-03-12T04:09:02.746Z,84.45
2016-03-12T04:10:02.686Z,84.45
2016-03-12T04:11:02.627Z,84.17
2016-03-12T04:12:02.583Z,84.88
2016-03-12T04:13:02.507Z,84.36
2016-03-12T04:14:02.463Z,84.55
2016-03-12T04:15:02.388Z,84.74
2016-03-12T04:16:02.343Z,84.64
2016-03-12T04:17:02.284Z,84.17
2016-03-12T04:18:02.223Z,83.78
2016-03-12T04:19:02.180Z,83.88
2016-03-12T04:20:02.104Z,83.5
2016-03-12T04:21:02.060Z,83.69
2016-03-12T04:22:02.031Z,84.17
2016-03-12T04:23:01.956Z,84.55
2016-03-12T04:24:01.881Z,85.11
2016-03-12T04:25:01.820Z,84.55
2016-03-12T04:26:01.746Z,84.55
2016-03-12T04:27:01.701Z,84.45
2016-03-12T04:28:01.657Z,83.69
2016-03-12T04:29:01.597Z,83.59
2016-03-12T04:30:01.553Z,83.69
2016-03-12T04:31:01.478Z,83.59
2016-03-12T04:32:01.418Z,84.17
2016-03-12T04:33:01.373Z,84.07
2016-03-12T04:34:01.297Z,83.78
2016-03-12T04:35:01.253Z,83.88
2016-03-12T04:36:01.178Z,83.88
2016-03-12T04:37:01.119Z,83.88
2016-03-12T04:38:01.074Z,83.97
2016-03-12T04:39:01.015Z,84.17
2016-03-12T04:40:00.955Z,84.36
2016-03-12T04:41:00.895Z,83.88
2016-03-12T04:42:00.851Z,84.17
2016-03-12T04:43:00.775Z,83.59
2016-03-12T04:44:00.716Z,84.26
2016-03-12T04:45:00.671Z,84.55
2016-03-12T04:46:00.612Z,84.45
2016-03-12T04:47:00.551Z,83.97
2016-03-12T04:48:00.493Z,84.26
2016-03-12T04:49:00.432Z,84.26
2016-03-12T04:50:00.388Z,84.17
2016-03-12T04:51:00.313Z,84.41
2016-03-12T04:52:00.269Z,84.55
2016-03-12T04:53:00.209Z,84.64
2016-03-12T04:54:00.133Z,84.26
2016-03-12T04:55:00.089Z,84.07
2016-03-12T04:56:00.045Z,84.17
2016-03-12T04:56:59.970Z,84.07
2016-03-12T04:57:59.910Z,83.59
2016-03-12T04:58:59.865Z,83.5
2016-03-12T04:59:59.790Z,83.69
2016-03-12T05:00:59.746Z,83.69
2016-03-12T05:01:59.686Z,83.78
2016-03-12T05:02:59.626Z,84.17
2016-03-12T05:03:59.567Z,83.69
2016-03-12T05:04:59.506Z,83.97
2016-03-12T05:05:59.478Z,83.97
2016-03-12T05:06:59.421Z,83.97
2016-03-12T05:07:59.329Z,84.07
2016-03-12T05:08:59.285Z,84.26
2016-03-12T05:09:59.224Z,84.17
2016-03-12T05:10:59.165Z,84.36
2016-03-12T05:11:59.104Z,84.45
2016-03-12T05:12:59.093Z,83.97
2016-03-12T05:13:59.001Z,84.17
2016-03-12T05:14:58.926Z,84.36
2016-03-12T05:15:58.881Z,84.55
2016-03-12T05:16:58.806Z,84.92
2016-03-12T05:17:58.819Z,84.92
2016-03-12T05:18:58.666Z,85.17
2016-03-12T05:19:58.609Z,85.11
2016-03-12T05:20:58.536Z,85.02
2016-03-12T05:21:58.462Z,84.74
2016-03-12T05:22:58.394Z,85.3
2016-03-12T05:23:58.329Z,85.49
2016-03-12T05:24:58.266Z,85.3
2016-03-12T05:25:58.200Z,85.11
2016-03-12T05:26:58.167Z,85.3
2016-03-12T05:27:58.089Z,85.02
2016-03-12T05:28:58.027Z,84.64
2016-03-12T05:29:57.965Z,84.45
2016-03-12T05:30:57.888Z,85.49
2016-03-12T05:31:57.826Z,85.74
2016-03-12T05:32:57.780Z,85.78
2016-03-12T05:33:57.720Z,85.21
2016-03-12T05:34:57.659Z,84.55
2016-03-12T05:35:57.598Z,84.55
2016-03-12T05:36:57.537Z,84.36
2016-03-12T05:37:57.493Z,84.45
2016-03-12T05:38:57.434Z,84.07
2016-03-12T05:39:57.373Z,84.07
2016-03-12T05:40:57.315Z,84.74
2016-03-12T05:41:57.254Z,84.74
2016-03-12T05:42:57.195Z,84.64
2016-03-12T05:43:57.150Z,84.64
2016-03-12T05:44:57.075Z,84.55
2016-03-12T05:45:57.047Z,84.07
2016-03-12T05:46:56.986Z,83.78
2016-03-12T05:47:56.910Z,83.69
2016-03-12T05:48:56.850Z,83.78
2016-03-12T05:49:56.807Z,83.88
2016-03-12T05:50:56.747Z,83.88
2016-03-12T05:51:56.687Z,83.4
2016-03-12T05:52:56.643Z,83.4
2016-03-12T05:53:56.568Z,83.12
2016-03-12T05:54:56.508Z,83.31
2016-03-12T05:55:56.448Z,83.03
2016-03-12T05:56:56.404Z,83.12
2016-03-12T05:57:56.360Z,83.12
2016-03-12T05:58:56.300Z,83.07
2016-03-12T05:59:56.240Z,83.12
2016-03-12T06:00:56.195Z,83.12
2016-03-12T06:01:56.121Z,83.31
2016-03-12T06:02:56.060Z,83.07
2016-03-12T06:03:56.016Z,82.69
2016-03-12T06:04:55.957Z,82.88
2016-03-12T06:05:55.929Z,82.74
2016-03-12T06:06:55.853Z,82.31
2016-03-12T06:07:55.777Z,82.69
2016-03-12T06:08:55.717Z,82.21
2016-03-12T06:09:55.673Z,82.21
2016-03-12T06:10:55.629Z,82.69
2016-03-12T06:11:55.553Z,82.69
2016-03-12T06:12:55.494Z,82.4
2016-03-12T06:13:55.449Z,82.88
2016-03-12T06:14:55.390Z,82.5
2016-03-12T06:15:55.330Z,82.5
2016-03-12T06:16:55.270Z,82.4
2016-03-12T06:17:55.226Z,82.69
2016-03-12T06:18:55.181Z,82.4
2016-03-12T06:19:55.106Z,82.31
2016-03-12T06:20:55.077Z,82.21
2016-03-12T06:21:55.002Z,82.27
2016-03-12T06:22:54.927Z,81.98
2016-03-12T06:23:54.899Z,82.74
2016-03-12T06:24:54.838Z,82.4
2016-03-12T06:25:54.763Z,82.4
2016-03-12T06:26:54.719Z,82.4
2016-03-12T06:27:54.660Z,82.31
2016-03-12T06:28:54.599Z,82.27
2016-03-12T06:29:54.540Z,82.4
2016-03-12T06:30:54.527Z,82.65
2016-03-12T06:31:54.435Z,82.5
2016-03-12T06:32:54.376Z,82.97
2016-03-12T06:33:54.315Z,82.84
2016-03-12T06:34:54.257Z,82.46
2016-03-12T06:35:54.196Z,82.36
2016-03-12T06:36:54.152Z,82.84
2016-03-12T06:37:54.076Z,82.74
2016-03-12T06:38:54.032Z,82.88
2016-03-12T06:39:53.957Z,83.22
2016-03-12T06:40:53.897Z,83.31
2016-03-12T06:41:53.853Z,83.31
2016-03-12T06:42:53.809Z,83.12
2016-03-12T06:43:53.749Z,83.22
2016-03-12T06:44:53.705Z,82.84
2016-03-12T06:45:53.629Z,82.88
2016-03-12T06:46:53.570Z,82.46
2016-03-12T06:47:53.526Z,82.97
2016-03-12T06:48:53.466Z,82.74
2016-03-12T06:49:53.436Z,82.69
2016-03-12T06:50:53.346Z,82.59
2016-03-12T06:51:53.302Z,82.69
2016-03-12T06:52:53.227Z,82.88
2016-03-12T06:53:53.182Z,82.4
2016-03-12T06:54:53.122Z,82.4
2016-03-12T06:55:53.063Z,82.31
2016-03-12T06:56:53.002Z,82.36
2016-03-12T06:57:52.958Z,82.27
2016-03-12T06:58:52.898Z,82.31
2016-03-12T06:59:52.839Z,82.69
2016-03-12T07:00:52.794Z,82.69
2016-03-12T07:01:52.704Z,82.21
2016-03-12T07:02:52.659Z,82.65
2016-03-12T07:03:52.615Z,82.65
2016-03-12T07:04:52.555Z,82.4
2016-03-12T07:05:52.511Z,82.69
2016-03-12T07:06:52.452Z,82.69
2016-03-12T07:07:52.392Z,82.21
2016-03-12T07:08:52.332Z,82.59
2016-03-12T07:09:52.272Z,82.84
2016-03-12T07:10:52.212Z,82.78
2016-03-12T07:11:51.996Z,83.07
2016-03-12T07:12:52.108Z,82.93
2016-03-12T07:13:52.048Z,82.5
2016-03-12T07:14:51.988Z,82.55
2016-03-12T07:15:51.945Z,82.93
2016-03-12T07:16:51.869Z,82.93
2016-03-12T07:17:51.794Z,83.31
2016-03-12T07:18:51.750Z,83.12
2016-03-12T07:19:51.721Z,82.84
2016-03-12T07:20:51.645Z,83.03
2016-03-12T07:21:51.585Z,83.22
2016-03-12T07:22:51.525Z,83.4
2016-03-12T07:23:51.481Z,83.12
2016-03-12T07:24:51.422Z,82.93
2016-03-12T07:25:51.361Z,82.93
2016-03-12T07:26:51.302Z,83.22
2016-03-12T07:27:51.242Z,83.07
2016-03-12T07:28:51.183Z,82.84
2016-03-12T07:29:51.122Z,83.31
2016-03-12T07:30:51.063Z,83.22
2016-03-12T07:31:51.003Z,83.03
2016-03-12T07:32:50.943Z,83.12
2016-03-12T07:33:50.758Z,83.03
2016-03-12T07:34:50.839Z,83.4
2016-03-12T07:35:50.780Z,83.88
2016-03-12T07:36:50.720Z,83.88
2016-03-12T07:37:50.754Z,83.78
2016-03-12T07:38:50.615Z,83.4
2016-03-12T07:39:50.571Z,83.31
2016-03-12T07:40:50.496Z,83.12
2016-03-12T07:41:50.436Z,83.03
2016-03-12T07:42:50.393Z,83.26
2016-03-12T07:43:50.332Z,82.84
2016-03-12T07:44:50.273Z,83.03
2016-03-12T07:45:50.197Z,83.03
2016-03-12T07:46:50.153Z,83.31
2016-03-12T07:47:50.093Z,83.22
2016-03-12T07:48:50.033Z,83.31
2016-03-12T07:49:49.989Z,83.31
2016-03-12T07:50:49.928Z,83.07
2016-03-12T07:51:49.869Z,83.03
2016-03-12T07:52:49.825Z,82.88
2016-03-12T07:53:49.749Z,83.03
2016-03-12T07:54:49.675Z,82.5
2016-03-12T07:55:49.474Z,82.88
2016-03-12T07:56:49.570Z,82.88
2016-03-12T07:57:49.526Z,83.36
2016-03-12T07:58:49.466Z,83.31
2016-03-12T07:59:49.407Z,82.88
2016-03-12T08:00:49.362Z,83.31
2016-03-12T08:01:49.287Z,83.12
2016-03-12T08:02:49.242Z,83.26
2016-03-12T08:03:49.183Z,83.26
2016-03-12T08:04:49.138Z,82.84
2016-03-12T08:05:49.063Z,82.97
2016-03-12T08:06:49.019Z,83.16
2016-03-12T08:07:48.975Z,83.26
2016-03-12T08:08:48.931Z,83.26
2016-03-12T08:09:48.871Z,82.5
2016-03-12T08:10:48.779Z,82.12
2016-03-12T08:11:48.720Z,82.31
2016-03-12T08:12:48.676Z,82.69
2016-03-12T08:13:48.616Z,82.88
2016-03-12T08:14:48.556Z,82.88
2016-03-12T08:15:48.496Z,82.88
2016-03-12T08:16:48.453Z,82.69
2016-03-12T08:17:48.376Z,82.21
2016-03-12T08:18:48.333Z,82.4
2016-03-12T08:19:48.257Z,82.4
2016-03-12T08:20:48.213Z,82.12
2016-03-12T08:21:48.169Z,82.4
2016-03-12T08:22:48.125Z,82.5
2016-03-12T08:23:48.049Z,83.36
2016-03-12T08:24:47.974Z,83.36
2016-03-12T08:25:47.930Z,83.07
2016-03-12T08:26:47.869Z,82.59
2016-03-12T08:27:47.841Z,82.59
2016-03-12T08:28:47.766Z,82.36
2016-03-12T08:29:47.690Z,82.5
2016-03-12T08:30:47.631Z,83.26
2016-03-12T08:31:47.586Z,83.36
2016-03-12T08:32:47.527Z,83.16
2016-03-12T08:33:47.466Z,83.07
2016-03-12T08:34:47.407Z,83.26
2016-03-12T08:35:47.363Z,83.4
2016-03-12T08:36:47.287Z,83.03
2016-03-12T08:37:47.227Z,83.31
2016-03-12T08:38:47.199Z,82.78
2016-03-12T08:39:47.124Z,82.88
2016-03-12T08:40:47.095Z,82.5
2016-03-12T08:41:47.004Z,82.4
2016-03-12T08:42:46.944Z,82.21
2016-03-12T08:43:46.900Z,82.21
2016-03-12T08:44:46.839Z,82.31
2016-03-12T08:45:46.780Z,82.5
2016-03-12T08:46:46.704Z,82.31
2016-03-12T08:47:46.661Z,82.12
2016-03-12T08:48:46.616Z,81.93
2016-03-12T08:49:46.556Z,81.84
2016-03-12T08:50:46.512Z,81.93
2016-03-12T08:51:46.453Z,81.74
2016-03-12T08:52:46.392Z,81.84
2016-03-12T08:53:46.317Z,81.84
2016-03-12T08:54:46.289Z,81.26
2016-03-12T08:55:46.213Z,81.36
2016-03-12T08:56:46.185Z,81.55
2016-03-12T08:57:46.108Z,81.17
2016-03-12T08:58:46.066Z,81.12
2016-03-12T08:59:46.005Z,80.88
2016-03-12T09:00:45.961Z,81.36
2016-03-12T09:01:45.869Z,81.36
2016-03-12T09:02:45.826Z,81.36
2016-03-12T09:03:45.766Z,81.12
2016-03-12T09:04:45.706Z,81.02
2016-03-12T09:05:45.663Z,81.3
2016-03-12T09:06:45.633Z,80.79
2016-03-12T09:07:45.527Z,80.64
2016-03-12T09:08:45.482Z,81.45
2016-03-12T09:09:45.423Z,80.98
2016-03-12T09:10:45.363Z,80.98
2016-03-12T09:11:45.318Z,80.69
2016-03-12T09:12:45.259Z,80.55
2016-03-12T09:13:45.214Z,80.32
2016-03-12T09:14:45.155Z,80.79
2016-03-12T09:15:45.079Z,80.79
2016-03-12T09:16:45.035Z,80.88
2016-03-12T09:17:44.976Z,80.83
2016-03-12T09:18:44.931Z,81.17
2016-03-12T09:19:44.872Z,81.45
2016-03-12T09:20:44.812Z,81.02
2016-03-12T09:21:44.753Z,81.3
2016-03-12T09:22:44.692Z,80.83
2016-03-12T09:23:44.633Z,80.74
2016-03-12T09:24:44.572Z,80.64
2016-03-12T09:25:44.528Z,80.93
2016-03-12T09:26:44.453Z,80.74
2016-03-12T09:27:44.408Z,80.55
2016-03-12T09:28:44.365Z,80.64
2016-03-12T09:29:44.305Z,80.83
2016-03-12T09:30:44.261Z,80.74
2016-03-12T09:31:44.200Z,80.64
2016-03-12T09:32:44.125Z,80.93
2016-03-12T09:33:44.066Z,80.88
2016-03-12T09:34:44.037Z,80.16
2016-03-12T09:35:43.945Z,80.26
2016-03-12T09:36:43.901Z,80.51
2016-03-12T09:37:43.841Z,80.88
2016-03-12T09:38:43.782Z,80.41
2016-03-12T09:39:43.721Z,80.41
2016-03-12T09:40:43.679Z,80.45
2016-03-12T09:41:43.634Z,80.55
2016-03-12T09:42:43.558Z,80.35
2016-03-12T09:43:43.498Z,80.35
2016-03-12T09:44:43.439Z,80.07
2016-03-12T09:45:43.379Z,79.88
2016-03-12T09:46:43.334Z,79.88
2016-03-12T09:47:43.290Z,80.55
2016-03-12T09:48:43.231Z,79.97
2016-03-12T09:49:43.171Z,80.16
2016-03-12T09:50:43.111Z,79.97
2016-03-12T09:51:43.051Z,79.69
2016-03-12T09:52:42.992Z,80.07
2016-03-12T09:53:42.931Z,80.16
2016-03-12T09:54:42.887Z,80.45
2016-03-12T09:55:42.828Z,80.07
2016-03-12T09:56:42.767Z,80.45
2016-03-12T09:57:42.708Z,79.97
2016-03-12T09:58:42.663Z,79.79
2016-03-12T09:59:42.588Z,80.07
2016-03-12T10:00:42.528Z,80.26
2016-03-12T10:01:42.485Z,80.64
2016-03-12T10:02:42.424Z,80.16
2016-03-12T10:03:42.380Z,80.07
2016-03-12T10:04:42.352Z,79.97
2016-03-12T10:05:42.260Z,79.97
2016-03-12T10:06:42.201Z,80.26
2016-03-12T10:07:42.135Z,79.79
2016-03-12T10:08:42.091Z,80.16
2016-03-12T10:09:42.031Z,80.26
2016-03-12T10:10:41.987Z,80.16
2016-03-12T10:11:41.912Z,79.69
2016-03-12T10:12:41.851Z,79.79
2016-03-12T10:13:41.808Z,79.97
2016-03-12T10:14:41.748Z,79.12
2016-03-12T10:15:41.704Z,79.5
2016-03-12T10:16:41.628Z,79.79
2016-03-12T10:17:41.584Z,80.07
2016-03-12T10:18:41.525Z,79.97
2016-03-12T10:19:41.464Z,79.88
2016-03-12T10:20:41.405Z,79.88
2016-03-12T10:21:41.345Z,79.88
2016-03-12T10:22:41.301Z,79.6
2016-03-12T10:23:41.241Z,79.6
2016-03-12T10:24:41.196Z,79.6
2016-03-12T10:25:41.136Z,79.41
2016-03-12T10:26:41.077Z,79.41
2016-03-12T10:27:41.017Z,78.64
2016-03-12T10:28:40.957Z,78.74
2016-03-12T10:29:40.914Z,78.93
2016-03-12T10:30:40.838Z,78.83
2016-03-12T10:31:40.777Z,78.93
2016-03-12T10:32:40.749Z,78.74
2016-03-12T10:33:40.690Z,78.27
2016-03-12T10:34:40.614Z,77.79
2016-03-12T10:35:40.570Z,78.27
2016-03-12T10:36:40.525Z,78.17
2016-03-12T10:37:40.445Z,78.36
2016-03-12T10:38:40.400Z,78.64
2016-03-12T10:39:40.356Z,78.64
2016-03-12T10:40:40.280Z,78.17
2016-03-12T10:41:40.221Z,78.27
2016-03-12T10:42:40.177Z,78.36
2016-03-12T10:43:39.961Z,78.74
2016-03-12T10:44:40.089Z,78.74
2016-03-12T10:45:40.013Z,78.83
2016-03-12T10:46:39.937Z,78.83
2016-03-12T10:47:39.878Z,78.74
2016-03-12T10:48:39.833Z,78.83
2016-03-12T10:49:39.774Z,78.83
2016-03-12T10:50:39.730Z,78.74
2016-03-12T10:51:39.669Z,78.93
2016-03-12T10:52:39.610Z,79.03
2016-03-12T10:53:39.549Z,78.55
2016-03-12T10:54:39.506Z,78.17
2016-03-12T10:55:39.462Z,78.17
2016-03-12T10:56:39.402Z,78.11
2016-03-12T10:57:39.342Z,78.36
2016-03-12T10:58:39.282Z,78.5
2016-03-12T10:59:39.223Z,78.64
2016-03-12T11:00:39.162Z,78.93
2016-03-12T11:01:39.118Z,78.55
2016-03-12T11:02:39.058Z,79.41
2016-03-12T11:03:38.984Z,79.12
2016-03-12T11:04:38.954Z,79.12
2016-03-12T11:05:38.895Z,78.64
2016-03-12T11:06:38.820Z,78.64
2016-03-12T11:07:38.775Z,78.27
2016-03-12T11:08:38.731Z,78.74
2016-03-12T11:09:38.655Z,78.83
2016-03-12T11:10:38.628Z,78.74
2016-03-12T11:11:38.536Z,78.21
2016-03-12T11:12:38.351Z,77.73
2016-03-12T11:13:38.431Z,78.4
2016-03-12T11:14:38.216Z,78.45
2016-03-12T11:15:38.328Z,78.21
2016-03-12T11:16:38.268Z,78.69
2016-03-12T11:17:38.225Z,78.21
2016-03-12T11:18:38.164Z,78.21
2016-03-12T11:19:37.947Z,78.08
2016-03-12T11:20:38.060Z,78.5
2016-03-12T11:21:38.084Z,78.11
2016-03-12T11:22:37.909Z,77.89
2016-03-12T11:23:37.723Z,78.74
2016-03-12T11:24:37.852Z,78.83
2016-03-12T11:25:37.811Z,78.5
2016-03-12T11:26:37.704Z,78.3
2016-03-12T11:27:37.660Z,78.3
2016-03-12T11:28:37.600Z,78.45
2016-03-12T11:29:37.556Z,78.08
2016-03-12T11:30:37.496Z,77.89
2016-03-12T11:31:37.420Z,77.83
2016-03-12T11:32:37.377Z,78.45
2016-03-12T11:33:37.332Z,78.5
2016-03-12T11:34:37.257Z,78.5
2016-03-12T11:35:37.213Z,78.27
2016-03-12T11:36:37.153Z,78.64
2016-03-12T11:37:37.093Z,78.93
2016-03-12T11:38:37.048Z,79.12
2016-03-12T11:39:36.990Z,79.69
2016-03-12T11:40:36.929Z,79.69
2016-03-12T11:41:36.885Z,79.41
2016-03-12T11:42:36.809Z,79.5
2016-03-12T11:43:36.765Z,80.35
2016-03-12T11:44:36.706Z,79.41
2016-03-12T11:45:36.630Z,80.16
2016-03-12T11:46:36.602Z,79.88
2016-03-12T11:47:36.526Z,79.41
2016-03-12T11:48:36.467Z,79.5
2016-03-12T11:49:36.438Z,79.97
2016-03-12T11:50:36.362Z,79.69
2016-03-12T11:51:36.303Z,79.12
2016-03-12T11:52:36.258Z,79.31
2016-03-12T11:53:36.199Z,79.44
2016-03-12T11:54:36.139Z,79.73
2016-03-12T11:55:36.094Z,79.25
2016-03-12T11:56:36.035Z,79.25
2016-03-12T11:57:35.975Z,79.44
2016-03-12T11:58:35.916Z,79.31
2016-03-12T11:59:35.855Z,79.41
2016-03-12T12:00:35.811Z,79.25
2016-03-12T12:01:35.736Z,79.63
2016-03-12T12:02:35.692Z,79.6
2016-03-12T12:03:35.632Z,79.6
2016-03-12T12:04:35.587Z,79.5
2016-03-12T12:05:35.512Z,79.31
2016-03-12T12:06:35.468Z,79.6
2016-03-12T12:07:35.407Z,79.5
2016-03-12T12:08:35.349Z,79.6
2016-03-12T12:09:35.288Z,79.88
2016-03-12T12:10:35.245Z,79.79
2016-03-12T12:11:35.184Z,79.88
2016-03-12T12:12:35.125Z,80.07
2016-03-12T12:13:35.096Z,79.97
2016-03-12T12:14:35.020Z,79.6
2016-03-12T12:15:34.961Z,79.54
2016-03-12T12:16:34.917Z,79.44
2016-03-12T12:17:34.856Z,79.63
2016-03-12T12:18:34.797Z,79.97
2016-03-12T12:19:34.737Z,79.92
2016-03-12T12:20:34.678Z,79.83
2016-03-12T12:21:34.634Z,79.88
2016-03-12T12:22:34.573Z,80.49
2016-03-12T12:23:35.108Z,80.21
2016-03-12T12:24:34.454Z,80.11
2016-03-12T12:25:34.425Z,80.07
2016-03-12T12:26:34.349Z,80.02
2016-03-12T12:27:34.291Z,80.21
2016-03-12T12:28:34.246Z,79.79
2016-03-12T12:29:34.186Z,79.97
2016-03-12T12:30:34.111Z,79.79
2016-03-12T12:31:34.066Z,79.88
2016-03-12T12:32:34.007Z,79.63
2016-03-12T12:33:33.962Z,79.79
2016-03-12T12:34:33.903Z,79.88
2016-03-12T12:35:33.843Z,79.97
2016-03-12T12:36:33.783Z,79.54
2016-03-12T12:37:33.723Z,79.12
2016-03-12T12:38:33.663Z,79.69
2016-03-12T12:39:33.603Z,79.88
2016-03-12T12:40:33.559Z,80.07
2016-03-12T12:41:33.515Z,79.88
2016-03-12T12:42:33.456Z,79.79
2016-03-12T12:43:33.395Z,79.69
2016-03-12T12:44:33.336Z,79.79
2016-03-12T12:45:33.276Z,80.02
2016-03-12T12:46:33.231Z,80.02
2016-03-12T12:47:33.172Z,79.54
2016-03-12T12:48:33.142Z,79.5
2016-03-12T12:49:33.053Z,79.73
2016-03-12T12:50:33.008Z,79.63
2016-03-12T12:51:32.964Z,79.44
2016-03-12T12:52:32.983Z,79.54
2016-03-12T12:53:32.828Z,79.44
2016-03-12T12:54:32.784Z,78.78